Terminal Aerodrome Forecast
Issued by NWS

Home | Current Version | Previous Version | Text Only | Print | Product List | Glossary On
Versions: 1 2 3 4 5 6 7 8 9 10 11 12 13 14 15 16 17
580
FTUS43 KPAH 210520
TAFCGI
TAF
KCGI 210520Z 2106/2206 VRB04KT P6SM SCT250
     FM210700 00000KT 3SM BR BCFG FEW250
     FM211400 19005KT P6SM SCT040 SCT250
     FM220000 19006KT P6SM FEW250=

USA.gov is the U.S. government's official web portal to all federal, state and local government web resources and services.